메인 페이지
METAR-TAF:

METAR-TAF

공항 :

카라치, 파키스탄

진나 국제공항

위도: 24-54N, 경도: 067-08E, 고도: 21m

현재 날씨관측

예보는 39분 전, 00:25시(UTC)에 발표되었습니다.
무풍
온도 19°C
습도 83%
기압 1010 hPa
시정: 5000m
연기

METAR: OPKC 180025Z 00000KT 5000 FU NSC 19/16 Q1010 NOSIG

시각: 06:04 (01:04 UTC)

예보

예보는 3 시간 34분 전, 21:30시(UTC)에 발표되었습니다.
예보 대상 시간: 18일 00시부터 19일 06시까지 (UTC)
서남서5kt, 순간 최대 풍속 15kt
시정: 6000m
일시적
18일 01시부터 18일 05시까지 (UTC)
여러 방향의 바람 3kt
시정: 2000m
연기
18일 1800시부터 (UTC)
서북서5kt
시정: 5000m
연기
일시적
19일 01시부터 19일 05시까지 (UTC)
여러 방향의 바람 3kt
시정: 2000m
연기

TAF: OPKC 172130Z 1800/1906 25005G15KT 6000 NSC TEMPO 1801/1805 VRB03KT 2000 FU NSC FM181800 29005KT 5000 FU NSC TEMPO 1901/1905 VRB03KT 2000 FU NSC

4,000개 이상의 공항 관측 자료 및 예보 (METAR 및 TAF 보고).

지도상에서 검색 가능한 기상관측소가 노란 점과 빨간 점으로 표시되어 있습니다.

기상관측소 명을 보려면 표시 위로 마우스를 이동하세요.

날씨 관측과 예보를 보려면 클릭하세요.

지도 변경 : 확대하려면 엑스 표시가 있는 녹색 버튼, 축소하려면 빼기 표시가 있는 녹색 버튼, 다음 페이지의 지도를 보려면 녹색 화살표를 클릭하세요.


METAR-TAF: